sensor_id;sensor_type;location;lat;lon;timestamp;P1;durP1;ratioP1;P2;durP2;ratioP2
22234;SDS011;11286;45.596;5.284;2023-04-24T00:01:42;2.35;;;1.52;;
22234;SDS011;11286;45.596;5.284;2023-04-24T00:04:08;3.40;;;1.35;;
22234;SDS011;11286;45.596;5.284;2023-04-24T00:06:36;3.00;;;1.40;;
22234;SDS011;11286;45.596;5.284;2023-04-24T00:09:02;3.60;;;1.63;;
22234;SDS011;11286;45.596;5.284;2023-04-24T00:11:28;3.33;;;1.52;;
22234;SDS011;11286;45.596;5.284;2023-04-24T00:13:55;2.05;;;1.50;;
22234;SDS011;11286;45.596;5.284;2023-04-24T00:16:21;2.33;;;1.80;;
22234;SDS011;11286;45.596;5.284;2023-04-24T00:18:47;5.95;;;1.50;;
22234;SDS011;11286;45.596;5.284;2023-04-24T00:21:14;3.50;;;1.50;;
22234;SDS011;11286;45.596;5.284;2023-04-24T00:23:41;2.10;;;1.60;;
22234;SDS011;11286;45.596;5.284;2023-04-24T00:26:06;4.85;;;1.55;;
22234;SDS011;11286;45.596;5.284;2023-04-24T00:28:32;2.42;;;1.30;;
22234;SDS011;11286;45.596;5.284;2023-04-24T00:30:57;2.83;;;1.50;;
22234;SDS011;11286;45.596;5.284;2023-04-24T00:33:23;3.00;;;1.50;;
22234;SDS011;11286;45.596;5.284;2023-04-24T00:35:49;2.83;;;1.70;;
22234;SDS011;11286;45.596;5.284;2023-04-24T00:38:14;2.30;;;1.60;;
22234;SDS011;11286;45.596;5.284;2023-04-24T00:40:40;2.30;;;1.27;;
22234;SDS011;11286;45.596;5.284;2023-04-24T00:43:06;2.25;;;1.50;;
22234;SDS011;11286;45.596;5.284;2023-04-24T00:45:31;2.35;;;1.60;;
22234;SDS011;11286;45.596;5.284;2023-04-24T00:47:57;2.50;;;1.30;;
22234;SDS011;11286;45.596;5.284;2023-04-24T00:50:23;2.47;;;1.20;;
22234;SDS011;11286;45.596;5.284;2023-04-24T00:52:49;1.58;;;1.40;;
22234;SDS011;11286;45.596;5.284;2023-04-24T00:55:15;3.90;;;1.40;;
22234;SDS011;11286;45.596;5.284;2023-04-24T00:57:42;3.35;;;1.30;;
22234;SDS011;11286;45.596;5.284;2023-04-24T01:00:08;3.30;;;1.42;;
22234;SDS011;11286;45.596;5.284;2023-04-24T01:02:39;3.45;;;1.42;;
22234;SDS011;11286;45.596;5.284;2023-04-24T01:05:08;2.95;;;1.50;;
22234;SDS011;11286;45.596;5.284;2023-04-24T01:07:34;3.88;;;1.52;;
22234;SDS011;11286;45.596;5.284;2023-04-24T01:10:01;1.67;;;1.20;;
22234;SDS011;11286;45.596;5.284;2023-04-24T01:12:27;1.85;;;1.23;;
22234;SDS011;11286;45.596;5.284;2023-04-24T01:14:53;5.20;;;1.35;;
22234;SDS011;11286;45.596;5.284;2023-04-24T01:17:19;5.05;;;1.30;;
22234;SDS011;11286;45.596;5.284;2023-04-24T01:19:46;1.95;;;1.30;;
22234;SDS011;11286;45.596;5.284;2023-04-24T01:22:14;2.97;;;1.25;;
22234;SDS011;11286;45.596;5.284;2023-04-24T01:24:41;2.08;;;1.55;;
22234;SDS011;11286;45.596;5.284;2023-04-24T01:27:08;2.75;;;1.60;;
22234;SDS011;11286;45.596;5.284;2023-04-24T01:29:34;2.58;;;1.40;;
22234;SDS011;11286;45.596;5.284;2023-04-24T01:32:01;3.65;;;1.50;;
22234;SDS011;11286;45.596;5.284;2023-04-24T01:34:28;3.33;;;1.65;;
22234;SDS011;11286;45.596;5.284;2023-04-24T01:36:53;3.70;;;1.38;;
22234;SDS011;11286;45.596;5.284;2023-04-24T01:39:21;1.52;;;1.42;;
22234;SDS011;11286;45.596;5.284;2023-04-24T01:41:48;3.20;;;1.58;;
22234;SDS011;11286;45.596;5.284;2023-04-24T01:44:15;4.10;;;1.63;;
22234;SDS011;11286;45.596;5.284;2023-04-24T01:46:41;2.35;;;1.48;;
22234;SDS011;11286;45.596;5.284;2023-04-24T01:49:07;2.83;;;1.48;;
22234;SDS011;11286;45.596;5.284;2023-04-24T01:51:32;2.67;;;1.38;;
22234;SDS011;11286;45.596;5.284;2023-04-24T01:53:58;1.48;;;1.30;;
22234;SDS011;11286;45.596;5.284;2023-04-24T01:56:24;2.20;;;1.60;;
22234;SDS011;11286;45.596;5.284;2023-04-24T01:58:50;1.50;;;1.38;;
22234;SDS011;11286;45.596;5.284;2023-04-24T02:01:23;4.07;;;1.20;;
22234;SDS011;11286;45.596;5.284;2023-04-24T02:03:49;2.15;;;1.45;;
22234;SDS011;11286;45.596;5.284;2023-04-24T02:06:15;2.70;;;1.40;;
22234;SDS011;11286;45.596;5.284;2023-04-24T02:08:41;1.42;;;1.25;;
22234;SDS011;11286;45.596;5.284;2023-04-24T02:11:08;2.35;;;1.40;;
22234;SDS011;11286;45.596;5.284;2023-04-24T02:13:34;2.65;;;1.20;;
22234;SDS011;11286;45.596;5.284;2023-04-24T02:16:00;3.63;;;1.60;;
22234;SDS011;11286;45.596;5.284;2023-04-24T02:18:26;2.85;;;1.30;;
22234;SDS011;11286;45.596;5.284;2023-04-24T02:20:52;4.05;;;1.20;;
22234;SDS011;11286;45.596;5.284;2023-04-24T02:23:17;1.17;;;1.08;;
22234;SDS011;11286;45.596;5.284;2023-04-24T02:25:43;3.05;;;1.15;;
22234;SDS011;11286;45.596;5.284;2023-04-24T02:28:09;2.13;;;1.33;;
22234;SDS011;11286;45.596;5.284;2023-04-24T02:30:34;1.33;;;1.15;;
22234;SDS011;11286;45.596;5.284;2023-04-24T02:33:00;2.17;;;1.05;;
22234;SDS011;11286;45.596;5.284;2023-04-24T02:35:26;1.77;;;1.25;;
22234;SDS011;11286;45.596;5.284;2023-04-24T02:37:51;3.25;;;1.30;;
22234;SDS011;11286;45.596;5.284;2023-04-24T02:40:17;3.13;;;1.25;;
22234;SDS011;11286;45.596;5.284;2023-04-24T02:42:42;2.25;;;1.10;;
22234;SDS011;11286;45.596;5.284;2023-04-24T02:45:08;2.58;;;1.27;;
22234;SDS011;11286;45.596;5.284;2023-04-24T02:47:34;2.78;;;1.15;;
22234;SDS011;11286;45.596;5.284;2023-04-24T02:50:00;3.38;;;1.20;;
22234;SDS011;11286;45.596;5.284;2023-04-24T02:52:26;2.67;;;1.17;;
22234;SDS011;11286;45.596;5.284;2023-04-24T02:54:52;2.40;;;1.08;;
22234;SDS011;11286;45.596;5.284;2023-04-24T02:57:18;2.53;;;1.13;;
22234;SDS011;11286;45.596;5.284;2023-04-24T02:59:44;3.22;;;1.05;;
22234;SDS011;11286;45.596;5.284;2023-04-24T03:02:11;6.90;;;1.50;;
22234;SDS011;11286;45.596;5.284;2023-04-24T03:04:37;3.75;;;1.20;;
22234;SDS011;11286;45.596;5.284;2023-04-24T03:07:02;2.70;;;1.27;;
22234;SDS011;11286;45.596;5.284;2023-04-24T03:09:29;3.45;;;1.10;;
22234;SDS011;11286;45.596;5.284;2023-04-24T03:11:55;1.38;;;1.00;;
22234;SDS011;11286;45.596;5.284;2023-04-24T03:14:21;1.88;;;1.13;;
22234;SDS011;11286;45.596;5.284;2023-04-24T03:16:47;2.78;;;1.38;;
22234;SDS011;11286;45.596;5.284;2023-04-24T03:19:12;3.35;;;1.00;;
22234;SDS011;11286;45.596;5.284;2023-04-24T03:21:38;1.95;;;1.20;;
22234;SDS011;11286;45.596;5.284;2023-04-24T03:24:06;3.60;;;1.13;;
22234;SDS011;11286;45.596;5.284;2023-04-24T03:26:33;2.95;;;1.17;;
22234;SDS011;11286;45.596;5.284;2023-04-24T03:28:58;4.80;;;1.42;;
22234;SDS011;11286;45.596;5.284;2023-04-24T03:31:24;2.88;;;1.30;;
22234;SDS011;11286;45.596;5.284;2023-04-24T03:33:50;2.90;;;1.38;;
22234;SDS011;11286;45.596;5.284;2023-04-24T03:36:16;4.38;;;1.40;;
22234;SDS011;11286;45.596;5.284;2023-04-24T03:38:42;2.33;;;1.38;;
22234;SDS011;11286;45.596;5.284;2023-04-24T03:41:08;2.53;;;1.23;;
22234;SDS011;11286;45.596;5.284;2023-04-24T03:43:33;3.72;;;1.30;;
22234;SDS011;11286;45.596;5.284;2023-04-24T03:45:59;2.30;;;1.30;;
22234;SDS011;11286;45.596;5.284;2023-04-24T03:48:25;5.65;;;1.50;;
22234;SDS011;11286;45.596;5.284;2023-04-24T03:50:51;3.05;;;1.38;;
22234;SDS011;11286;45.596;5.284;2023-04-24T03:53:16;5.18;;;1.65;;
22234;SDS011;11286;45.596;5.284;2023-04-24T03:55:42;3.15;;;1.20;;
22234;SDS011;11286;45.596;5.284;2023-04-24T03:58:08;4.30;;;1.42;;
22234;SDS011;11286;45.596;5.284;2023-04-24T04:00:33;2.83;;;1.10;;
22234;SDS011;11286;45.596;5.284;2023-04-24T04:02:59;3.95;;;1.38;;
22234;SDS011;11286;45.596;5.284;2023-04-24T04:05:25;4.10;;;1.60;;
22234;SDS011;11286;45.596;5.284;2023-04-24T04:07:51;2.80;;;1.83;;
22234;SDS011;11286;45.596;5.284;2023-04-24T04:10:16;3.45;;;1.85;;
22234;SDS011;11286;45.596;5.284;2023-04-24T04:12:42;3.47;;;2.00;;
22234;SDS011;11286;45.596;5.284;2023-04-24T04:15:08;3.25;;;1.33;;
22234;SDS011;11286;45.596;5.284;2023-04-24T04:17:34;5.90;;;1.50;;
22234;SDS011;11286;45.596;5.284;2023-04-24T04:19:59;6.50;;;2.05;;
22234;SDS011;11286;45.596;5.284;2023-04-24T04:22:25;3.50;;;2.00;;
22234;SDS011;11286;45.596;5.284;2023-04-24T04:24:51;2.70;;;1.60;;
22234;SDS011;11286;45.596;5.284;2023-04-24T04:27:17;2.60;;;1.40;;
22234;SDS011;11286;45.596;5.284;2023-04-24T04:29:43;3.55;;;1.60;;
22234;SDS011;11286;45.596;5.284;2023-04-24T04:32:09;2.78;;;1.30;;
22234;SDS011;11286;45.596;5.284;2023-04-24T04:34:35;3.88;;;1.55;;
22234;SDS011;11286;45.596;5.284;2023-04-24T04:37:02;4.07;;;1.40;;
22234;SDS011;11286;45.596;5.284;2023-04-24T04:39:28;5.82;;;1.50;;
22234;SDS011;11286;45.596;5.284;2023-04-24T04:41:55;2.58;;;1.60;;
22234;SDS011;11286;45.596;5.284;2023-04-24T04:44:21;7.13;;;1.95;;
22234;SDS011;11286;45.596;5.284;2023-04-24T04:46:46;3.17;;;1.60;;
22234;SDS011;11286;45.596;5.284;2023-04-24T04:49:12;3.70;;;1.80;;
22234;SDS011;11286;45.596;5.284;2023-04-24T04:51:41;3.55;;;1.98;;
22234;SDS011;11286;45.596;5.284;2023-04-24T04:54:07;4.60;;;2.15;;
22234;SDS011;11286;45.596;5.284;2023-04-24T04:56:33;2.75;;;1.98;;
22234;SDS011;11286;45.596;5.284;2023-04-24T04:58:58;3.72;;;1.80;;
22234;SDS011;11286;45.596;5.284;2023-04-24T05:01:24;3.90;;;1.88;;
22234;SDS011;11286;45.596;5.284;2023-04-24T05:03:52;3.28;;;1.80;;
22234;SDS011;11286;45.596;5.284;2023-04-24T05:06:18;3.22;;;1.80;;
22234;SDS011;11286;45.596;5.284;2023-04-24T05:08:43;3.42;;;2.13;;
22234;SDS011;11286;45.596;5.284;2023-04-24T05:11:09;4.22;;;2.17;;
22234;SDS011;11286;45.596;5.284;2023-04-24T05:13:35;3.38;;;1.70;;
22234;SDS011;11286;45.596;5.284;2023-04-24T05:16:00;3.17;;;1.73;;
22234;SDS011;11286;45.596;5.284;2023-04-24T05:18:26;5.13;;;2.10;;
22234;SDS011;11286;45.596;5.284;2023-04-24T05:20:52;3.60;;;2.00;;
22234;SDS011;11286;45.596;5.284;2023-04-24T05:23:17;4.07;;;1.98;;
22234;SDS011;11286;45.596;5.284;2023-04-24T05:25:43;6.05;;;2.33;;
22234;SDS011;11286;45.596;5.284;2023-04-24T05:28:09;4.45;;;2.58;;
22234;SDS011;11286;45.596;5.284;2023-04-24T05:30:35;4.63;;;2.25;;
22234;SDS011;11286;45.596;5.284;2023-04-24T05:33:00;5.05;;;2.33;;
22234;SDS011;11286;45.596;5.284;2023-04-24T05:35:26;5.95;;;2.90;;
22234;SDS011;11286;45.596;5.284;2023-04-24T05:37:51;6.38;;;2.50;;
22234;SDS011;11286;45.596;5.284;2023-04-24T05:40:17;5.57;;;2.97;;
22234;SDS011;11286;45.596;5.284;2023-04-24T05:42:43;5.93;;;2.60;;
22234;SDS011;11286;45.596;5.284;2023-04-24T05:45:08;4.05;;;2.60;;
22234;SDS011;11286;45.596;5.284;2023-04-24T05:47:39;6.75;;;3.03;;
22234;SDS011;11286;45.596;5.284;2023-04-24T05:50:05;5.53;;;3.38;;
22234;SDS011;11286;45.596;5.284;2023-04-24T05:52:31;7.90;;;3.03;;
22234;SDS011;11286;45.596;5.284;2023-04-24T05:54:56;5.00;;;3.22;;
22234;SDS011;11286;45.596;5.284;2023-04-24T05:57:22;7.90;;;3.42;;
22234;SDS011;11286;45.596;5.284;2023-04-24T05:59:48;4.25;;;3.33;;
22234;SDS011;11286;45.596;5.284;2023-04-24T06:02:13;4.68;;;3.40;;
22234;SDS011;11286;45.596;5.284;2023-04-24T06:04:39;7.72;;;4.65;;
22234;SDS011;11286;45.596;5.284;2023-04-24T06:07:04;6.75;;;3.80;;
22234;SDS011;11286;45.596;5.284;2023-04-24T06:09:31;7.75;;;4.20;;
22234;SDS011;11286;45.596;5.284;2023-04-24T06:11:56;5.93;;;4.20;;
22234;SDS011;11286;45.596;5.284;2023-04-24T06:14:23;5.85;;;3.55;;
22234;SDS011;11286;45.596;5.284;2023-04-24T06:16:49;6.45;;;3.58;;
22234;SDS011;11286;45.596;5.284;2023-04-24T06:19:14;5.10;;;3.08;;
22234;SDS011;11286;45.596;5.284;2023-04-24T06:21:40;4.50;;;3.10;;
22234;SDS011;11286;45.596;5.284;2023-04-24T06:24:05;5.97;;;3.40;;
22234;SDS011;11286;45.596;5.284;2023-04-24T06:26:31;4.85;;;3.00;;
22234;SDS011;11286;45.596;5.284;2023-04-24T06:28:57;8.35;;;3.50;;
22234;SDS011;11286;45.596;5.284;2023-04-24T06:31:24;5.40;;;3.30;;
22234;SDS011;11286;45.596;5.284;2023-04-24T06:33:49;4.35;;;3.33;;
22234;SDS011;11286;45.596;5.284;2023-04-24T06:36:15;5.72;;;3.65;;
22234;SDS011;11286;45.596;5.284;2023-04-24T06:38:41;6.72;;;3.40;;
22234;SDS011;11286;45.596;5.284;2023-04-24T06:41:07;5.00;;;3.25;;
22234;SDS011;11286;45.596;5.284;2023-04-24T06:43:33;3.63;;;2.50;;
22234;SDS011;11286;45.596;5.284;2023-04-24T06:45:59;3.35;;;2.20;;
22234;SDS011;11286;45.596;5.284;2023-04-24T06:48:25;3.83;;;2.10;;
22234;SDS011;11286;45.596;5.284;2023-04-24T06:50:54;6.40;;;2.03;;
22234;SDS011;11286;45.596;5.284;2023-04-24T06:53:20;4.13;;;2.10;;
22234;SDS011;11286;45.596;5.284;2023-04-24T06:55:45;3.53;;;2.05;;
22234;SDS011;11286;45.596;5.284;2023-04-24T06:58:11;3.58;;;1.80;;
22234;SDS011;11286;45.596;5.284;2023-04-24T07:00:37;3.72;;;2.10;;
22234;SDS011;11286;45.596;5.284;2023-04-24T07:03:03;2.78;;;1.85;;
22234;SDS011;11286;45.596;5.284;2023-04-24T07:05:32;3.85;;;2.28;;
22234;SDS011;11286;45.596;5.284;2023-04-24T07:08:02;4.65;;;1.90;;
22234;SDS011;11286;45.596;5.284;2023-04-24T07:10:28;5.18;;;1.98;;
22234;SDS011;11286;45.596;5.284;2023-04-24T07:12:54;4.35;;;2.13;;
22234;SDS011;11286;45.596;5.284;2023-04-24T07:15:21;3.58;;;2.10;;
22234;SDS011;11286;45.596;5.284;2023-04-24T07:17:48;3.55;;;2.00;;
22234;SDS011;11286;45.596;5.284;2023-04-24T07:20:13;3.13;;;1.83;;
22234;SDS011;11286;45.596;5.284;2023-04-24T07:22:39;5.55;;;2.42;;
22234;SDS011;11286;45.596;5.284;2023-04-24T07:25:05;3.65;;;2.20;;
22234;SDS011;11286;45.596;5.284;2023-04-24T07:27:31;5.95;;;2.22;;
22234;SDS011;11286;45.596;5.284;2023-04-24T07:29:57;2.88;;;1.83;;
22234;SDS011;11286;45.596;5.284;2023-04-24T07:32:23;3.78;;;1.70;;
22234;SDS011;11286;45.596;5.284;2023-04-24T07:34:49;3.00;;;2.22;;
22234;SDS011;11286;45.596;5.284;2023-04-24T07:37:14;5.80;;;1.67;;
22234;SDS011;11286;45.596;5.284;2023-04-24T07:39:40;4.57;;;2.00;;
22234;SDS011;11286;45.596;5.284;2023-04-24T07:42:06;3.47;;;2.20;;
22234;SDS011;11286;45.596;5.284;2023-04-24T07:44:31;5.35;;;2.25;;
22234;SDS011;11286;45.596;5.284;2023-04-24T07:46:57;2.90;;;2.10;;
22234;SDS011;11286;45.596;5.284;2023-04-24T07:49:23;4.78;;;2.20;;
22234;SDS011;11286;45.596;5.284;2023-04-24T07:51:49;5.30;;;2.28;;
22234;SDS011;11286;45.596;5.284;2023-04-24T07:54:15;4.57;;;1.95;;
22234;SDS011;11286;45.596;5.284;2023-04-24T07:56:41;4.80;;;2.33;;
22234;SDS011;11286;45.596;5.284;2023-04-24T07:59:08;5.20;;;2.10;;
22234;SDS011;11286;45.596;5.284;2023-04-24T08:01:35;4.38;;;2.58;;
22234;SDS011;11286;45.596;5.284;2023-04-24T08:04:01;1.88;;;1.67;;
22234;SDS011;11286;45.596;5.284;2023-04-24T08:06:26;5.55;;;2.10;;
22234;SDS011;11286;45.596;5.284;2023-04-24T08:08:56;3.92;;;2.17;;
22234;SDS011;11286;45.596;5.284;2023-04-24T08:11:22;2.95;;;2.00;;
22234;SDS011;11286;45.596;5.284;2023-04-24T08:13:48;2.47;;;2.20;;
22234;SDS011;11286;45.596;5.284;2023-04-24T08:16:14;2.83;;;1.85;;
22234;SDS011;11286;45.596;5.284;2023-04-24T08:18:40;3.33;;;1.92;;
22234;SDS011;11286;45.596;5.284;2023-04-24T08:21:06;4.28;;;2.50;;
22234;SDS011;11286;45.596;5.284;2023-04-24T08:23:31;3.92;;;1.98;;
22234;SDS011;11286;45.596;5.284;2023-04-24T08:25:57;3.53;;;2.08;;
22234;SDS011;11286;45.596;5.284;2023-04-24T08:28:23;3.15;;;2.00;;
22234;SDS011;11286;45.596;5.284;2023-04-24T08:30:48;3.47;;;1.80;;
22234;SDS011;11286;45.596;5.284;2023-04-24T08:33:19;3.33;;;1.92;;
22234;SDS011;11286;45.596;5.284;2023-04-24T08:35:48;5.40;;;2.28;;
22234;SDS011;11286;45.596;5.284;2023-04-24T08:38:14;4.55;;;2.50;;
22234;SDS011;11286;45.596;5.284;2023-04-24T08:40:40;3.72;;;1.92;;
22234;SDS011;11286;45.596;5.284;2023-04-24T08:43:06;3.60;;;1.88;;
22234;SDS011;11286;45.596;5.284;2023-04-24T08:45:32;2.60;;;1.98;;
22234;SDS011;11286;45.596;5.284;2023-04-24T08:47:58;3.75;;;2.10;;
22234;SDS011;11286;45.596;5.284;2023-04-24T08:50:24;2.25;;;1.90;;
22234;SDS011;11286;45.596;5.284;2023-04-24T08:52:52;3.67;;;1.85;;
22234;SDS011;11286;45.596;5.284;2023-04-24T08:55:19;2.83;;;1.90;;
22234;SDS011;11286;45.596;5.284;2023-04-24T08:57:45;4.10;;;2.40;;
22234;SDS011;11286;45.596;5.284;2023-04-24T09:00:16;3.90;;;2.10;;
22234;SDS011;11286;45.596;5.284;2023-04-24T09:02:43;5.40;;;2.20;;
22234;SDS011;11286;45.596;5.284;2023-04-24T09:05:10;3.22;;;1.83;;
22234;SDS011;11286;45.596;5.284;2023-04-24T09:07:36;2.47;;;2.20;;
22234;SDS011;11286;45.596;5.284;2023-04-24T09:10:04;2.15;;;1.88;;
22234;SDS011;11286;45.596;5.284;2023-04-24T09:12:31;1.88;;;1.67;;
22234;SDS011;11286;45.596;5.284;2023-04-24T09:14:59;3.40;;;2.00;;
22234;SDS011;11286;45.596;5.284;2023-04-24T09:17:28;2.47;;;2.22;;
22234;SDS011;11286;45.596;5.284;2023-04-24T09:19:55;2.78;;;2.08;;
22234;SDS011;11286;45.596;5.284;2023-04-24T09:22:21;4.97;;;2.25;;
22234;SDS011;11286;45.596;5.284;2023-04-24T09:24:46;3.67;;;2.08;;
22234;SDS011;11286;45.596;5.284;2023-04-24T09:27:13;3.58;;;2.20;;
22234;SDS011;11286;45.596;5.284;2023-04-24T09:30:02;2.95;;;2.30;;
22234;SDS011;11286;45.596;5.284;2023-04-24T09:32:28;4.68;;;2.33;;
22234;SDS011;11286;45.596;5.284;2023-04-24T09:35:07;3.83;;;2.30;;
22234;SDS011;11286;45.596;5.284;2023-04-24T09:37:36;2.55;;;1.85;;
22234;SDS011;11286;45.596;5.284;2023-04-24T09:40:09;3.67;;;1.95;;
22234;SDS011;11286;45.596;5.284;2023-04-24T09:42:42;3.45;;;1.80;;
22234;SDS011;11286;45.596;5.284;2023-04-24T09:45:10;2.78;;;1.90;;
22234;SDS011;11286;45.596;5.284;2023-04-24T09:47:39;3.08;;;1.90;;
22234;SDS011;11286;45.596;5.284;2023-04-24T09:50:12;2.72;;;1.90;;
22234;SDS011;11286;45.596;5.284;2023-04-24T09:52:40;3.30;;;2.00;;
22234;SDS011;11286;45.596;5.284;2023-04-24T09:55:14;4.40;;;1.80;;
22234;SDS011;11286;45.596;5.284;2023-04-24T09:57:51;3.10;;;2.08;;
22234;SDS011;11286;45.596;5.284;2023-04-24T10:00:25;2.80;;;1.80;;
22234;SDS011;11286;45.596;5.284;2023-04-24T10:02:57;8.13;;;5.97;;
22234;SDS011;11286;45.596;5.284;2023-04-24T10:05:23;3.97;;;1.80;;
22234;SDS011;11286;45.596;5.284;2023-04-24T10:08:06;3.65;;;1.70;;
22234;SDS011;11286;45.596;5.284;2023-04-24T10:10:34;3.15;;;2.00;;
22234;SDS011;11286;45.596;5.284;2023-04-24T10:13:03;2.08;;;1.83;;
22234;SDS011;11286;45.596;5.284;2023-04-24T10:15:31;2.33;;;1.63;;
22234;SDS011;11286;45.596;5.284;2023-04-24T10:17:59;2.88;;;1.75;;
22234;SDS011;11286;45.596;5.284;2023-04-24T10:20:27;2.80;;;1.73;;
22234;SDS011;11286;45.596;5.284;2023-04-24T10:22:55;3.30;;;1.50;;
22234;SDS011;11286;45.596;5.284;2023-04-24T10:25:22;3.72;;;1.60;;
22234;SDS011;11286;45.596;5.284;2023-04-24T10:27:50;4.68;;;1.70;;
22234;SDS011;11286;45.596;5.284;2023-04-24T10:30:17;1.73;;;1.60;;
22234;SDS011;11286;45.596;5.284;2023-04-24T10:32:44;4.07;;;1.88;;
22234;SDS011;11286;45.596;5.284;2023-04-24T10:35:13;3.80;;;1.50;;
22234;SDS011;11286;45.596;5.284;2023-04-24T10:40:24;3.55;;;1.73;;
22234;SDS011;11286;45.596;5.284;2023-04-24T10:42:58;3.17;;;1.90;;
22234;SDS011;11286;45.596;5.284;2023-04-24T10:45:26;2.40;;;1.90;;
22234;SDS011;11286;45.596;5.284;2023-04-24T10:47:57;4.30;;;2.15;;
22234;SDS011;11286;45.596;5.284;2023-04-24T10:50:26;3.78;;;1.77;;
22234;SDS011;11286;45.596;5.284;2023-04-24T10:52:55;3.33;;;1.90;;
22234;SDS011;11286;45.596;5.284;2023-04-24T10:55:50;4.80;;;2.28;;
22234;SDS011;11286;45.596;5.284;2023-04-24T10:58:35;3.28;;;2.00;;
22234;SDS011;11286;45.596;5.284;2023-04-24T11:04:21;4.10;;;1.80;;
22234;SDS011;11286;45.596;5.284;2023-04-24T11:06:55;3.22;;;1.80;;
22234;SDS011;11286;45.596;5.284;2023-04-24T11:09:21;3.67;;;1.65;;
22234;SDS011;11286;45.596;5.284;2023-04-24T11:11:49;2.53;;;2.10;;
22234;SDS011;11286;45.596;5.284;2023-04-24T11:14:15;2.13;;;1.60;;
22234;SDS011;11286;45.596;5.284;2023-04-24T11:21:44;2.65;;;1.88;;
22234;SDS011;11286;45.596;5.284;2023-04-24T11:27:05;2.10;;;1.77;;
22234;SDS011;11286;45.596;5.284;2023-04-24T11:29:41;2.55;;;1.58;;
22234;SDS011;11286;45.596;5.284;2023-04-24T11:32:14;4.95;;;1.80;;
22234;SDS011;11286;45.596;5.284;2023-04-24T11:34:45;2.70;;;1.70;;
22234;SDS011;11286;45.596;5.284;2023-04-24T11:37:12;2.45;;;1.60;;
22234;SDS011;11286;45.596;5.284;2023-04-24T11:39:38;3.53;;;1.77;;
22234;SDS011;11286;45.596;5.284;2023-04-24T11:42:05;2.80;;;1.55;;
22234;SDS011;11286;45.596;5.284;2023-04-24T11:44:33;2.88;;;1.48;;
22234;SDS011;11286;45.596;5.284;2023-04-24T11:46:59;3.67;;;1.55;;
22234;SDS011;11286;45.596;5.284;2023-04-24T11:49:25;2.15;;;1.60;;
22234;SDS011;11286;45.596;5.284;2023-04-24T11:51:54;2.55;;;1.80;;
22234;SDS011;11286;45.596;5.284;2023-04-24T11:54:20;2.72;;;1.60;;
22234;SDS011;11286;45.596;5.284;2023-04-24T11:56:46;1.73;;;1.58;;
22234;SDS011;11286;45.596;5.284;2023-04-24T11:59:13;4.13;;;1.50;;
22234;SDS011;11286;45.596;5.284;2023-04-24T12:01:42;2.80;;;1.35;;
22234;SDS011;11286;45.596;5.284;2023-04-24T12:04:11;2.10;;;1.40;;
22234;SDS011;11286;45.596;5.284;2023-04-24T12:06:37;2.95;;;1.50;;
22234;SDS011;11286;45.596;5.284;2023-04-24T12:09:03;2.00;;;1.50;;
22234;SDS011;11286;45.596;5.284;2023-04-24T12:11:29;2.78;;;1.58;;
22234;SDS011;11286;45.596;5.284;2023-04-24T12:13:55;3.17;;;1.50;;
22234;SDS011;11286;45.596;5.284;2023-04-24T12:16:20;5.40;;;1.70;;
22234;SDS011;11286;45.596;5.284;2023-04-24T12:18:46;3.40;;;1.70;;
22234;SDS011;11286;45.596;5.284;2023-04-24T12:21:18;2.67;;;1.77;;
22234;SDS011;11286;45.596;5.284;2023-04-24T12:23:46;2.42;;;1.60;;
22234;SDS011;11286;45.596;5.284;2023-04-24T12:26:15;3.75;;;1.75;;
22234;SDS011;11286;45.596;5.284;2023-04-24T12:28:42;1.95;;;1.60;;
22234;SDS011;11286;45.596;5.284;2023-04-24T12:31:10;2.53;;;1.60;;
22234;SDS011;11286;45.596;5.284;2023-04-24T12:33:36;3.75;;;1.65;;
22234;SDS011;11286;45.596;5.284;2023-04-24T12:36:03;2.42;;;1.50;;
22234;SDS011;11286;45.596;5.284;2023-04-24T12:38:30;3.08;;;1.40;;
22234;SDS011;11286;45.596;5.284;2023-04-24T12:41:03;2.85;;;1.60;;
22234;SDS011;11286;45.596;5.284;2023-04-24T12:43:31;2.50;;;1.60;;
22234;SDS011;11286;45.596;5.284;2023-04-24T12:45:57;2.20;;;1.60;;
22234;SDS011;11286;45.596;5.284;2023-04-24T12:48:24;2.13;;;1.38;;
22234;SDS011;11286;45.596;5.284;2023-04-24T12:50:53;2.55;;;1.65;;
22234;SDS011;11286;45.596;5.284;2023-04-24T12:53:19;1.75;;;1.38;;
22234;SDS011;11286;45.596;5.284;2023-04-24T12:55:44;2.28;;;1.60;;
22234;SDS011;11286;45.596;5.284;2023-04-24T12:58:12;2.60;;;1.42;;
22234;SDS011;11286;45.596;5.284;2023-04-24T13:00:38;3.30;;;1.50;;
22234;SDS011;11286;45.596;5.284;2023-04-24T13:03:04;1.70;;;1.50;;
22234;SDS011;11286;45.596;5.284;2023-04-24T13:05:30;1.90;;;1.48;;
22234;SDS011;11286;45.596;5.284;2023-04-24T13:07:56;3.20;;;1.50;;
22234;SDS011;11286;45.596;5.284;2023-04-24T13:10:22;2.65;;;1.50;;
22234;SDS011;11286;45.596;5.284;2023-04-24T13:12:48;2.17;;;1.60;;
22234;SDS011;11286;45.596;5.284;2023-04-24T13:15:14;2.63;;;1.60;;
22234;SDS011;11286;45.596;5.284;2023-04-24T13:17:40;2.28;;;1.50;;
22234;SDS011;11286;45.596;5.284;2023-04-24T13:20:05;1.77;;;1.50;;
22234;SDS011;11286;45.596;5.284;2023-04-24T13:22:31;2.65;;;1.63;;
22234;SDS011;11286;45.596;5.284;2023-04-24T13:24:57;2.80;;;1.70;;
22234;SDS011;11286;45.596;5.284;2023-04-24T13:27:23;2.75;;;1.50;;
22234;SDS011;11286;45.596;5.284;2023-04-24T13:29:48;2.78;;;1.52;;
22234;SDS011;11286;45.596;5.284;2023-04-24T13:32:14;4.00;;;1.90;;
22234;SDS011;11286;45.596;5.284;2023-04-24T13:34:40;2.40;;;1.60;;
22234;SDS011;11286;45.596;5.284;2023-04-24T13:37:05;2.55;;;1.58;;
22234;SDS011;11286;45.596;5.284;2023-04-24T13:39:32;4.13;;;1.75;;
22234;SDS011;11286;45.596;5.284;2023-04-24T13:41:58;1.67;;;1.45;;
22234;SDS011;11286;45.596;5.284;2023-04-24T13:44:24;3.45;;;1.50;;
22234;SDS011;11286;45.596;5.284;2023-04-24T13:46:51;4.15;;;2.10;;
22234;SDS011;11286;45.596;5.284;2023-04-24T13:49:19;2.03;;;1.60;;
22234;SDS011;11286;45.596;5.284;2023-04-24T13:51:46;2.80;;;1.70;;
22234;SDS011;11286;45.596;5.284;2023-04-24T13:54:12;2.85;;;1.90;;
22234;SDS011;11286;45.596;5.284;2023-04-24T13:56:39;2.60;;;1.52;;
22234;SDS011;11286;45.596;5.284;2023-04-24T13:59:05;3.50;;;1.55;;
22234;SDS011;11286;45.596;5.284;2023-04-24T14:01:31;2.15;;;1.58;;
22234;SDS011;11286;45.596;5.284;2023-04-24T14:03:57;4.35;;;1.55;;
22234;SDS011;11286;45.596;5.284;2023-04-24T14:06:22;2.58;;;1.75;;
22234;SDS011;11286;45.596;5.284;2023-04-24T14:08:48;2.05;;;1.50;;
22234;SDS011;11286;45.596;5.284;2023-04-24T14:11:15;3.53;;;1.73;;
22234;SDS011;11286;45.596;5.284;2023-04-24T14:13:41;2.20;;;1.42;;
22234;SDS011;11286;45.596;5.284;2023-04-24T14:16:08;2.25;;;1.30;;
22234;SDS011;11286;45.596;5.284;2023-04-24T14:18:34;2.70;;;1.75;;
22234;SDS011;11286;45.596;5.284;2023-04-24T14:21:01;2.67;;;1.70;;
22234;SDS011;11286;45.596;5.284;2023-04-24T14:23:27;3.08;;;1.63;;
22234;SDS011;11286;45.596;5.284;2023-04-24T14:25:52;3.67;;;1.60;;
22234;SDS011;11286;45.596;5.284;2023-04-24T14:28:18;2.53;;;1.70;;
22234;SDS011;11286;45.596;5.284;2023-04-24T14:30:45;2.60;;;1.40;;
22234;SDS011;11286;45.596;5.284;2023-04-24T14:33:11;3.63;;;1.90;;
22234;SDS011;11286;45.596;5.284;2023-04-24T14:35:38;1.92;;;1.70;;
22234;SDS011;11286;45.596;5.284;2023-04-24T14:38:04;2.72;;;1.58;;
22234;SDS011;11286;45.596;5.284;2023-04-24T14:40:30;2.97;;;1.65;;
22234;SDS011;11286;45.596;5.284;2023-04-24T14:42:57;4.18;;;1.80;;
22234;SDS011;11286;45.596;5.284;2023-04-24T14:45:23;3.22;;;1.70;;
22234;SDS011;11286;45.596;5.284;2023-04-24T14:47:50;3.00;;;1.58;;
22234;SDS011;11286;45.596;5.284;2023-04-24T14:50:15;3.97;;;1.65;;
22234;SDS011;11286;45.596;5.284;2023-04-24T14:52:41;3.28;;;1.70;;
22234;SDS011;11286;45.596;5.284;2023-04-24T14:55:07;2.03;;;1.52;;
22234;SDS011;11286;45.596;5.284;2023-04-24T14:57:33;3.17;;;1.80;;
22234;SDS011;11286;45.596;5.284;2023-04-24T15:00:00;3.30;;;1.75;;